createdAt,value
2022-09-26T00:03:45.294Z,99427.22
2022-09-26T00:08:48.460Z,99424.94
2022-09-26T00:13:53.366Z,99415.53
2022-09-26T00:18:57.147Z,99414.53
2022-09-26T00:24:00.487Z,99414.53
2022-09-26T00:29:04.514Z,99418.50
2022-09-26T00:34:05.529Z,99407.19
2022-09-26T00:39:08.539Z,99406.94
2022-09-26T00:44:47.272Z,99401.91
2022-09-26T00:49:49.493Z,99403.47
2022-09-26T00:54:55.868Z,99396.63
2022-09-26T01:00:01.610Z,99388.44
2022-09-26T01:05:04.344Z,99397.75
2022-09-26T01:10:08.277Z,99381.44
2022-09-26T01:15:09.698Z,99390.63
2022-09-26T01:20:29.230Z,99387.47
2022-09-26T01:25:49.419Z,99392.09
2022-09-26T01:30:57.461Z,99382.91
2022-09-26T01:36:22.131Z,99380.06
2022-09-26T01:41:48.630Z,99373.25
2022-09-26T01:46:55.463Z,99378.06
2022-09-26T01:52:01.218Z,99371.28
2022-09-26T01:57:06.896Z,99370.97
2022-09-26T02:02:15.914Z,99377.47
2022-09-26T02:07:20.191Z,99364.72
2022-09-26T02:12:25.465Z,99363.25
2022-09-26T02:17:32.926Z,99357.22
2022-09-26T02:22:35.494Z,99355.84
2022-09-26T02:27:36.415Z,99353.63
2022-09-26T02:32:40.417Z,99353.81
2022-09-26T02:37:41.175Z,99351.53
2022-09-26T02:42:48.407Z,99350.97
2022-09-26T02:48:37.189Z,99347.22
2022-09-26T02:54:02.022Z,99353.25
2022-09-26T02:59:22.481Z,99344.94
2022-09-26T03:04:35.503Z,99345.94
2022-09-26T03:09:42.622Z,99341.72
2022-09-26T03:14:45.396Z,99348.50
2022-09-26T03:19:50.638Z,99342.53
2022-09-26T03:24:51.643Z,99340.13
2022-09-26T03:29:52.591Z,99333.34
2022-09-26T03:34:59.034Z,99331.47
2022-09-26T03:39:59.695Z,99337.84
2022-09-26T03:45:21.188Z,99337.91
2022-09-26T03:50:35.093Z,99341.22
2022-09-26T03:55:35.931Z,99345.47
2022-09-26T04:00:36.960Z,99340.25
2022-09-26T04:05:39.244Z,99334.19
2022-09-26T04:10:40.914Z,99337.88
2022-09-26T04:15:42.530Z,99336.19
2022-09-26T04:20:48.115Z,99329.41
2022-09-26T04:25:48.761Z,99327.13
2022-09-26T04:30:49.563Z,99325.41
2022-09-26T04:35:54.378Z,99324.72
2022-09-26T04:40:57.189Z,99324.81
2022-09-26T04:45:57.924Z,99323.19
2022-09-26T04:51:00.194Z,99322.16
2022-09-26T04:56:01.599Z,99323.84
2022-09-26T05:01:06.834Z,99327.09
2022-09-26T05:06:47.114Z,99314.13
2022-09-26T05:11:58.170Z,99316.00
2022-09-26T05:16:59.019Z,99309.91
2022-09-26T05:22:01.466Z,99312.56
2022-09-26T05:27:06.309Z,99303.88
2022-09-26T05:32:07.172Z,99307.38
2022-09-26T05:37:12.592Z,99304.75
2022-09-26T05:42:13.725Z,99313.34
2022-09-26T05:47:15.221Z,99315.16
2022-09-26T05:52:17.325Z,99318.25
2022-09-26T05:57:18.008Z,99316.53
2022-09-26T06:02:24.943Z,99317.59
2022-09-26T06:07:51.902Z,99326.06
2022-09-26T06:13:15.254Z,99320.22
2022-09-26T06:18:20.847Z,99320.22
2022-09-26T06:23:22.847Z,99321.78
2022-09-26T06:28:23.621Z,99314.75
2022-09-26T06:33:26.834Z,99315.56
2022-09-26T06:38:48.404Z,99308.28
2022-09-26T06:43:51.472Z,99307.31
2022-09-26T06:49:18.869Z,99302.03
2022-09-26T06:54:36.076Z,99297.59
2022-09-26T06:59:36.703Z,99301.97
2022-09-26T07:04:50.170Z,99301.28
2022-09-26T07:09:58.984Z,99294.41
2022-09-26T07:15:16.770Z,99300.41
2022-09-26T07:20:20.714Z,99303.78
2022-09-26T07:25:39.857Z,99293.03
2022-09-26T07:30:40.991Z,99289.16
2022-09-26T07:35:56.773Z,99286.59
2022-09-26T07:41:00.864Z,99290.13
2022-09-26T07:46:19.181Z,99289.75
2022-09-26T07:51:24.287Z,99290.50
2022-09-26T07:56:26.506Z,99279.34
2022-09-26T08:01:49.167Z,99283.78
2022-09-26T08:07:12.560Z,99283.38
2022-09-26T08:12:22.480Z,99284.09
2022-09-26T08:17:38.216Z,99274.72
2022-09-26T08:22:40.558Z,99266.69
2022-09-26T08:27:44.088Z,99263.22
2022-09-26T08:32:53.993Z,99264.34
2022-09-26T08:37:56.026Z,99266.25
2022-09-26T08:43:47.689Z,99264.56
2022-09-26T08:49:24.099Z,99265.53
2022-09-26T08:54:34.267Z,99265.41
2022-09-26T08:59:41.515Z,99256.34
2022-09-26T09:04:53.813Z,99252.78
2022-09-26T09:10:01.477Z,99252.28
2022-09-26T09:15:34.231Z,99245.47
2022-09-26T09:20:55.923Z,99241.22
2022-09-26T09:31:46.674Z,99245.34
2022-09-26T09:37:09.653Z,99234.78
2022-09-26T09:42:42.797Z,99220.47
2022-09-26T09:47:44.883Z,99218.19
2022-09-26T09:52:54.610Z,99216.81
2022-09-26T09:58:16.431Z,99216.13
2022-09-26T10:03:26.587Z,99221.00
2022-09-26T10:08:31.361Z,99209.56
2022-09-26T10:13:42.953Z,99200.00
2022-09-26T10:19:07.376Z,99191.31
2022-09-26T10:24:24.840Z,99179.00
2022-09-26T10:29:35.171Z,99180.66
2022-09-26T10:34:40.237Z,99181.03
2022-09-26T10:39:59.528Z,99163.06
2022-09-26T10:45:12.246Z,99170.59
2022-09-26T10:50:33.256Z,99172.06
2022-09-26T10:55:57.438Z,99159.84
2022-09-26T11:01:01.421Z,99158.84
2022-09-26T11:06:24.116Z,99144.16
2022-09-26T11:11:27.974Z,99138.66
2022-09-26T11:16:39.636Z,99130.19
2022-09-26T11:21:47.320Z,99123.66
2022-09-26T11:27:00.170Z,99119.84
2022-09-26T11:32:02.369Z,99112.53
2022-09-26T11:38:05.664Z,99107.31
2022-09-26T11:43:25.429Z,99106.34
2022-09-26T11:49:11.102Z,99088.34
2022-09-26T11:54:51.148Z,99092.88
2022-09-26T12:00:12.080Z,99087.41
2022-09-26T12:05:37.555Z,99089.06
2022-09-26T12:10:49.040Z,99079.38
2022-09-26T12:15:58.717Z,99070.13
2022-09-26T12:21:15.124Z,99057.56
2022-09-26T12:26:23.364Z,99053.47
2022-09-26T12:31:39.240Z,99045.16
2022-09-26T12:36:52.535Z,99034.28
2022-09-26T12:42:11.006Z,99038.19
2022-09-26T12:47:49.315Z,99033.63
2022-09-26T12:53:10.256Z,99032.78
2022-09-26T12:58:24.873Z,99020.97
2022-09-26T13:03:51.706Z,99012.88
2022-09-26T13:08:58.501Z,99007.94
2022-09-26T13:14:17.618Z,99006.03
2022-09-26T13:19:27.812Z,99000.09
2022-09-26T13:24:36.785Z,98995.94
2022-09-26T13:29:41.926Z,98987.59
2022-09-26T13:34:47.336Z,98983.13
2022-09-26T13:39:53.056Z,98978.22
2022-09-26T13:45:05.048Z,98977.75
2022-09-26T13:50:23.403Z,98967.97
2022-09-26T13:55:25.557Z,98964.03
2022-09-26T14:01:18.813Z,98947.38
2022-09-26T14:06:34.635Z,98936.59
2022-09-26T14:11:48.802Z,98934.91
2022-09-26T14:16:50.976Z,98930.69
2022-09-26T14:22:05.391Z,98924.22
2022-09-26T14:27:28.067Z,98917.28
2022-09-26T14:32:32.978Z,98911.75
2022-09-26T14:37:43.636Z,98909.72
2022-09-26T14:42:53.980Z,98910.38
2022-09-26T14:48:04.605Z,98901.13
2022-09-26T14:53:20.984Z,98907.00
2022-09-26T14:58:31.585Z,98896.22
2022-09-26T15:03:34.857Z,98897.16
2022-09-26T15:08:39.404Z,98895.66
2022-09-26T15:13:45.507Z,98884.72
2022-09-26T15:18:50.529Z,98875.28
2022-09-26T15:23:55.371Z,98869.75
2022-09-26T15:28:57.847Z,98863.34
2022-09-26T15:34:02.503Z,98862.53
2022-09-26T15:39:42.216Z,98864.53
2022-09-26T15:44:49.035Z,98859.81
2022-09-26T15:50:04.012Z,98853.16
2022-09-26T15:55:07.663Z,98839.56
2022-09-26T16:00:14.259Z,98828.44
2022-09-26T16:05:16.217Z,98835.47
2022-09-26T16:10:28.371Z,98833.56
2022-09-26T16:15:31.375Z,98832.19
2022-09-26T16:20:32.662Z,98830.50
2022-09-26T16:25:53.111Z,98826.94
2022-09-26T16:31:10.536Z,98823.84
2022-09-26T16:36:19.700Z,98831.41
2022-09-26T16:41:48.964Z,98829.00
2022-09-26T16:46:51.691Z,98821.88
2022-09-26T16:52:26.823Z,98825.22
2022-09-26T16:57:31.187Z,98825.53
2022-09-26T17:02:31.888Z,98829.47
2022-09-26T17:07:32.530Z,98827.19
2022-09-26T17:12:35.301Z,98831.66
2022-09-26T17:17:36.266Z,98834.06
2022-09-26T17:22:36.894Z,98828.88
2022-09-26T17:27:40.177Z,98822.75
2022-09-26T17:32:44.169Z,98818.22
2022-09-26T17:37:44.866Z,98818.00
2022-09-26T17:42:46.951Z,98817.75
2022-09-26T17:47:47.685Z,98814.94
2022-09-26T17:52:49.861Z,98819.06
2022-09-26T17:57:52.284Z,98813.03
2022-09-26T18:02:57.022Z,98822.13
2022-09-26T18:08:01.354Z,98815.41
2022-09-26T18:13:12.072Z,98815.41
2022-09-26T18:18:17.727Z,98806.63
2022-09-26T18:23:21.782Z,98805.19
2022-09-26T18:28:25.643Z,98800.53
2022-09-26T18:33:28.929Z,98793.72
2022-09-26T18:38:29.838Z,98795.75
2022-09-26T18:43:39.052Z,98789.13
2022-09-26T18:48:44.170Z,98784.78
2022-09-26T18:53:44.893Z,98793.25
2022-09-26T18:58:47.766Z,98793.69
2022-09-26T19:03:49.298Z,98791.06
2022-09-26T19:08:52.645Z,98783.47
2022-09-26T19:13:56.364Z,98777.72
2022-09-26T19:18:57.116Z,98772.75
2022-09-26T19:24:00.257Z,98769.78
2022-09-26T19:29:02.916Z,98771.47
2022-09-26T19:34:04.619Z,98773.84
2022-09-26T19:39:10.794Z,98781.38
2022-09-26T19:44:13.403Z,98777.00
2022-09-26T19:49:18.631Z,98772.91
2022-09-26T19:54:20.005Z,98765.22
2022-09-26T19:59:26.613Z,98761.94
2022-09-26T20:04:29.512Z,98746.94
2022-09-26T20:09:30.250Z,98740.31
2022-09-26T20:14:32.344Z,98726.69
2022-09-26T20:19:36.497Z,98725.13
2022-09-26T20:24:39.487Z,98716.19
2022-09-26T20:29:55.515Z,98720.25
2022-09-26T20:35:00.338Z,98726.69
2022-09-26T20:40:02.107Z,98716.16
2022-09-26T20:45:04.992Z,98717.78
2022-09-26T20:50:07.510Z,98712.06
2022-09-26T20:55:14.581Z,98704.22
2022-09-26T21:00:17.945Z,98696.63
2022-09-26T21:05:21.169Z,98689.88
2022-09-26T21:10:26.629Z,98690.94
2022-09-26T21:15:31.068Z,98678.06
2022-09-26T21:20:33.957Z,98683.25
2022-09-26T21:25:54.821Z,98675.66
2022-09-26T21:31:00.401Z,98660.03
2022-09-26T21:36:01.227Z,98659.56
2022-09-26T21:41:03.628Z,98648.09
2022-09-26T21:46:07.272Z,98644.03
2022-09-26T21:51:08.856Z,98643.31
2022-09-26T21:56:15.384Z,98633.28
2022-09-26T22:01:17.875Z,98628.00
2022-09-26T22:06:18.595Z,98630.84
2022-09-26T22:11:19.267Z,98610.44
2022-09-26T22:16:21.385Z,98617.88
2022-09-26T22:21:22.170Z,98602.75
2022-09-26T22:26:22.803Z,98591.81
2022-09-26T22:31:24.851Z,98575.19
2022-09-26T22:36:25.725Z,98568.06
2022-09-26T22:41:26.403Z,98559.63
2022-09-26T22:46:29.214Z,98542.69
2022-09-26T22:51:29.994Z,98537.50
2022-09-26T22:56:30.699Z,98525.06
2022-09-26T23:01:32.750Z,98516.22
2022-09-26T23:06:33.568Z,98503.19
2022-09-26T23:11:34.246Z,98497.50
2022-09-26T23:16:36.222Z,98486.75
2022-09-26T23:21:36.913Z,98475.78
2022-09-26T23:26:37.539Z,98465.94
2022-09-26T23:31:39.479Z,98462.13
2022-09-26T23:36:40.270Z,98456.72
2022-09-26T23:41:40.921Z,98451.44
2022-09-26T23:46:43.172Z,98451.44
2022-09-26T23:51:43.815Z,98449.47
2022-09-26T23:56:45.424Z,98444.75
